FDX6146 LGAV-EDDM
Flight info
| Callsign | FDX6146 |
|---|---|
| Flight time | N/A |
| Altitude | 32000 |
| Route | KOR UL613 XANIS DCT DIMIS DCT PETAK DCT GLOMY DCT ELTIB DCT GORPA DCT BERTA DCT RASTA DCT REDBU Q112 NAPSA NAPSA4A |
| Aircraft | B77L/H-SDE1E2E3FGHIJ2J3J4J5M1RWXY/LB1D1 |
Departure
| Time | N/A |
|---|---|
| Airport | Athens Eleftherios Venizelos International Airport (LGAV) |
Arrival
| Time | 2026-05-04 17:47 |
|---|---|
| Airport | Munich Airport (EDDM) |
| Time | Latitude | Longitude | Altitude | Speed | Heading |
|---|---|---|---|---|---|
| 2026-05-04 16:04 | 40.46372 | 20.30772 | 32109 ft | 438 kts | 331° |
| 2026-05-04 16:04 | 40.54331 | 20.24871 | 32106 ft | 438 kts | 331° |
| 2026-05-04 16:05 | 40.59634 | 20.20930 | 32110 ft | 438 kts | 331° |
| 2026-05-04 16:06 | 40.67589 | 20.15005 | 32106 ft | 438 kts | 331° |
| 2026-05-04 16:07 | 40.78207 | 20.07071 | 32109 ft | 439 kts | 331° |
| 2026-05-04 16:08 | 40.88823 | 19.99108 | 32099 ft | 439 kts | 331° |
| 2026-05-04 16:09 | 41.02104 | 19.89103 | 32098 ft | 440 kts | 331° |
| 2026-05-04 16:10 | 41.12713 | 19.81080 | 32126 ft | 441 kts | 330° |
| 2026-05-04 16:11 | 41.23349 | 19.73003 | 32124 ft | 440 kts | 330° |
| 2026-05-04 16:12 | 41.39270 | 19.60859 | 32111 ft | 441 kts | 330° |
| 2026-05-04 16:13 | 41.49941 | 19.52678 | 32106 ft | 443 kts | 330° |
| 2026-05-04 16:14 | 41.60629 | 19.44454 | 32102 ft | 444 kts | 330° |
| 2026-05-04 16:16 | 41.73989 | 19.34126 | 32101 ft | 443 kts | 330° |
| 2026-05-04 16:17 | 41.86937 | 19.23017 | 32101 ft | 444 kts | 327° |
| 2026-05-04 16:18 | 41.97189 | 19.13773 | 32097 ft | 444 kts | 327° |
| 2026-05-04 16:19 | 42.10038 | 19.02191 | 32106 ft | 447 kts | 327° |
| 2026-05-04 16:20 | 42.22987 | 18.90460 | 32103 ft | 450 kts | 327° |
| 2026-05-04 16:22 | 42.36019 | 18.78594 | 32141 ft | 462 kts | 326° |
| 2026-05-04 16:23 | 42.52076 | 18.63889 | 32124 ft | 464 kts | 326° |
| 2026-05-04 16:25 | 42.67220 | 18.49936 | 32132 ft | 466 kts | 326° |
| 2026-05-04 16:26 | 42.85996 | 18.32519 | 32116 ft | 468 kts | 326° |
| 2026-05-04 16:28 | 42.99399 | 18.20006 | 32106 ft | 469 kts | 326° |
| 2026-05-04 16:29 | 43.18267 | 18.02276 | 32090 ft | 471 kts | 326° |
| 2026-05-04 16:31 | 43.31768 | 17.89506 | 32075 ft | 471 kts | 326° |
| 2026-05-04 16:32 | 43.47942 | 17.74111 | 32066 ft | 471 kts | 325° |
| 2026-05-04 16:33 | 43.58588 | 17.63600 | 32086 ft | 470 kts | 321° |
| 2026-05-04 16:34 | 43.66189 | 17.55006 | 32085 ft | 472 kts | 321° |
| 2026-05-04 16:35 | 43.81315 | 17.37873 | 32080 ft | 458 kts | 321° |
| 2026-05-04 16:36 | 43.88699 | 17.29490 | 32094 ft | 458 kts | 321° |
| 2026-05-04 16:37 | 43.96050 | 17.21116 | 32080 ft | 458 kts | 321° |
| 2026-05-04 16:38 | 44.05939 | 17.09806 | 32082 ft | 459 kts | 321° |
| 2026-05-04 16:39 | 44.18281 | 16.95616 | 32086 ft | 461 kts | 321° |
| 2026-05-04 16:40 | 44.28167 | 16.84192 | 32073 ft | 462 kts | 320° |
| 2026-05-04 16:41 | 44.41175 | 16.71149 | 32070 ft | 462 kts | 325° |
| 2026-05-04 16:43 | 44.54407 | 16.58339 | 32079 ft | 463 kts | 324° |
| 2026-05-04 16:43 | 44.62346 | 16.50586 | 32079 ft | 463 kts | 324° |
| 2026-05-04 16:45 | 44.78224 | 16.35006 | 32037 ft | 465 kts | 324° |
| 2026-05-04 16:46 | 44.91490 | 16.21906 | 32044 ft | 466 kts | 324° |
| 2026-05-04 16:47 | 45.02104 | 16.11372 | 32041 ft | 467 kts | 324° |
| 2026-05-04 16:48 | 45.12734 | 16.00772 | 32042 ft | 468 kts | 324° |
| 2026-05-04 16:49 | 45.23361 | 15.90126 | 32029 ft | 468 kts | 323° |
| 2026-05-04 16:50 | 45.33960 | 15.79458 | 32028 ft | 469 kts | 324° |
| 2026-05-04 16:51 | 45.41933 | 15.71401 | 32027 ft | 469 kts | 323° |
| 2026-05-04 16:52 | 45.52569 | 15.60606 | 32025 ft | 470 kts | 323° |
| 2026-05-04 16:53 | 45.60545 | 15.52478 | 32012 ft | 469 kts | 323° |
| 2026-05-04 16:54 | 45.71125 | 15.41648 | 31991 ft | 467 kts | 323° |
| 2026-05-04 16:55 | 45.86870 | 15.25184 | 31999 ft | 468 kts | 322° |
| 2026-05-04 16:56 | 45.99961 | 15.11196 | 32014 ft | 469 kts | 322° |
| 2026-05-04 16:57 | 46.07832 | 15.02762 | 32023 ft | 471 kts | 322° |
| 2026-05-04 16:58 | 46.18359 | 14.91433 | 32027 ft | 472 kts | 321° |
| 2026-05-04 17:00 | 46.34104 | 14.74381 | 32036 ft | 471 kts | 321° |
| 2026-05-04 17:01 | 46.47148 | 14.60107 | 32020 ft | 469 kts | 320° |
| 2026-05-04 17:02 | 46.57357 | 14.48166 | 32008 ft | 473 kts | 319° |
| 2026-05-04 17:03 | 46.65072 | 14.39112 | 31999 ft | 476 kts | 319° |
| 2026-05-04 17:03 | 46.72846 | 14.29990 | 31996 ft | 477 kts | 319° |
| 2026-05-04 17:04 | 46.83179 | 14.17810 | 32006 ft | 478 kts | 319° |
| 2026-05-04 17:05 | 46.93527 | 14.05547 | 32013 ft | 479 kts | 319° |
| 2026-05-04 17:06 | 47.00422 | 13.97343 | 32012 ft | 480 kts | 319° |
| 2026-05-04 17:07 | 47.07351 | 13.89069 | 32001 ft | 481 kts | 319° |
| 2026-05-04 17:07 | 47.13373 | 13.81853 | 31988 ft | 481 kts | 319° |
| 2026-05-04 17:08 | 47.21176 | 13.72473 | 31104 ft | 493 kts | 319° |
| 2026-05-04 17:08 | 47.23830 | 13.69273 | 30409 ft | 491 kts | 319° |
| 2026-05-04 17:09 | 47.26449 | 13.66111 | 29800 ft | 485 kts | 318° |
| 2026-05-04 17:09 | 47.29042 | 13.62979 | 29144 ft | 479 kts | 319° |
| 2026-05-04 17:09 | 47.31601 | 13.59884 | 28569 ft | 473 kts | 318° |
| 2026-05-04 17:10 | 47.36628 | 13.53790 | 27400 ft | 464 kts | 319° |
| 2026-05-04 17:10 | 47.43988 | 13.44833 | 25735 ft | 451 kts | 319° |
| 2026-05-04 17:11 | 47.46396 | 13.41897 | 25189 ft | 447 kts | 319° |
| 2026-05-04 17:11 | 47.48786 | 13.38979 | 24670 ft | 444 kts | 319° |
| 2026-05-04 17:11 | 47.53528 | 13.33223 | 23594 ft | 438 kts | 319° |
| 2026-05-04 17:12 | 47.55885 | 13.30379 | 22983 ft | 435 kts | 319° |
| 2026-05-04 17:12 | 47.60530 | 13.24761 | 21887 ft | 428 kts | 319° |
| 2026-05-04 17:13 | 47.67334 | 13.16492 | 20373 ft | 416 kts | 319° |
| 2026-05-04 17:14 | 47.74016 | 13.08340 | 18897 ft | 409 kts | 318° |
| 2026-05-04 17:14 | 47.76220 | 13.05643 | 18410 ft | 408 kts | 318° |
| 2026-05-04 17:14 | 47.80571 | 13.00311 | 17335 ft | 404 kts | 318° |
| 2026-05-04 17:15 | 47.82732 | 12.97659 | 16812 ft | 402 kts | 318° |
| 2026-05-04 17:15 | 47.87048 | 12.92353 | 15840 ft | 397 kts | 318° |
| 2026-05-04 17:16 | 47.91286 | 12.87133 | 14884 ft | 394 kts | 317° |
| 2026-05-04 17:16 | 47.96909 | 12.78516 | 13953 ft | 388 kts | 301° |
| 2026-05-04 17:17 | 47.98328 | 12.75123 | 13907 ft | 383 kts | 296° |
| 2026-05-04 17:17 | 48.02336 | 12.64906 | 13904 ft | 380 kts | 296° |
| 2026-05-04 17:18 | 48.03702 | 12.61453 | 13910 ft | 381 kts | 297° |
| 2026-05-04 17:18 | 48.06412 | 12.54619 | 13906 ft | 383 kts | 297° |
| 2026-05-04 17:19 | 48.09097 | 12.47758 | 13908 ft | 380 kts | 292° |
| 2026-05-04 17:19 | 48.10616 | 12.40332 | 13758 ft | 369 kts | 275° |
| 2026-05-04 17:20 | 48.11643 | 12.32864 | 12921 ft | 371 kts | 287° |
| 2026-05-04 17:20 | 48.14091 | 12.25988 | 12166 ft | 372 kts | 300° |
| 2026-05-04 17:20 | 48.15507 | 12.22755 | 11829 ft | 370 kts | 300° |
| 2026-05-04 17:21 | 48.18299 | 12.16330 | 11147 ft | 366 kts | 300° |
| 2026-05-04 17:21 | 48.21029 | 12.09982 | 10943 ft | 361 kts | 299° |
| 2026-05-04 17:22 | 48.22388 | 12.06804 | 10940 ft | 363 kts | 299° |
| 2026-05-04 17:22 | 48.23745 | 12.03631 | 10937 ft | 356 kts | 300° |
| 2026-05-04 17:23 | 48.26787 | 11.94557 | 10735 ft | 297 kts | 269° |
| 2026-05-04 17:23 | 48.26677 | 11.91557 | 10618 ft | 281 kts | 261° |
| 2026-05-04 17:23 | 48.26237 | 11.85893 | 10123 ft | 268 kts | 260° |
| 2026-05-04 17:24 | 48.26013 | 11.83123 | 9741 ft | 267 kts | 260° |
| 2026-05-04 17:24 | 48.25350 | 11.74843 | 8473 ft | 266 kts | 261° |
| 2026-05-04 17:25 | 48.25132 | 11.72089 | 8076 ft | 265 kts | 261° |
| 2026-05-04 17:25 | 48.24696 | 11.66550 | 7947 ft | 268 kts | 261° |
| 2026-05-04 17:26 | 48.24263 | 11.61046 | 7494 ft | 262 kts | 261° |
| 2026-05-04 17:26 | 48.23616 | 11.52875 | 6234 ft | 265 kts | 262° |
| 2026-05-04 17:27 | 48.23180 | 11.47398 | 5375 ft | 264 kts | 262° |
| 2026-05-04 17:27 | 48.22761 | 11.41876 | 4492 ft | 263 kts | 269° |
| 2026-05-04 17:28 | 48.24394 | 11.37208 | 4036 ft | 267 kts | 329° |
| 2026-05-04 17:29 | 48.29342 | 11.37697 | 3998 ft | 252 kts | 46° |
| 2026-05-04 17:29 | 48.31632 | 11.44158 | 3983 ft | 222 kts | 81° |
| 2026-05-04 17:30 | 48.32202 | 11.50964 | 3999 ft | 214 kts | 83° |
| 2026-05-04 17:31 | 48.32529 | 11.55221 | 4006 ft | 200 kts | 83° |
| 2026-05-04 17:31 | 48.33004 | 11.61374 | 3319 ft | 181 kts | 83° |
| 2026-05-04 17:32 | 48.33273 | 11.64864 | 2881 ft | 160 kts | 83° |
| 2026-05-04 17:33 | 48.33661 | 11.69892 | 2223 ft | 163 kts | 82° |
| 2026-05-04 17:33 | 48.33793 | 11.71595 | 1998 ft | 164 kts | 82° |
| 2026-05-04 17:34 | 48.34182 | 11.76634 | 1847 ft | 147 kts | 84° |
| 2026-05-04 17:34 | 48.34108 | 11.78101 | 2262 ft | 142 kts | 109° |
| 2026-05-04 17:35 | 48.31181 | 11.79925 | 4405 ft | 178 kts | 174° |
| 2026-05-04 17:35 | 48.28544 | 11.80255 | 4996 ft | 199 kts | 174° |
| 2026-05-04 17:35 | 48.27151 | 11.80396 | 5004 ft | 203 kts | 184° |
| 2026-05-04 17:36 | 48.25833 | 11.79647 | 4999 ft | 209 kts | 220° |
| 2026-05-04 17:36 | 48.25053 | 11.77836 | 5013 ft | 211 kts | 255° |
| 2026-05-04 17:36 | 48.24869 | 11.76404 | 5027 ft | 213 kts | 262° |
| 2026-05-04 17:36 | 48.24701 | 11.74168 | 5015 ft | 219 kts | 263° |
| 2026-05-04 17:37 | 48.24552 | 11.71878 | 5004 ft | 223 kts | 264° |
| 2026-05-04 17:37 | 48.24399 | 11.69521 | 4976 ft | 230 kts | 264° |
| 2026-05-04 17:37 | 48.24244 | 11.67107 | 5001 ft | 235 kts | 264° |
| 2026-05-04 17:37 | 48.24089 | 11.64638 | 4850 ft | 240 kts | 264° |
| 2026-05-04 17:38 | 48.23931 | 11.62149 | 4597 ft | 238 kts | 264° |
| 2026-05-04 17:38 | 48.23775 | 11.59708 | 4319 ft | 232 kts | 264° |
| 2026-05-04 17:38 | 48.23619 | 11.57297 | 4082 ft | 225 kts | 264° |
| 2026-05-04 17:38 | 48.23466 | 11.54980 | 4053 ft | 225 kts | 264° |
| 2026-05-04 17:39 | 48.23141 | 11.50205 | 4020 ft | 233 kts | 264° |
| 2026-05-04 17:39 | 48.22979 | 11.47823 | 4000 ft | 232 kts | 264° |
| 2026-05-04 17:39 | 48.22816 | 11.45422 | 3991 ft | 231 kts | 264° |
| 2026-05-04 17:40 | 48.22654 | 11.43037 | 3989 ft | 230 kts | 264° |
| 2026-05-04 17:40 | 48.22488 | 11.40665 | 3986 ft | 228 kts | 264° |
| 2026-05-04 17:40 | 48.22508 | 11.38321 | 3981 ft | 226 kts | 288° |
| 2026-05-04 17:40 | 48.23322 | 11.36326 | 4023 ft | 229 kts | 322° |
| 2026-05-04 17:41 | 48.24745 | 11.35295 | 3997 ft | 230 kts | 355° |
| 2026-05-04 17:41 | 48.26289 | 11.35578 | 3991 ft | 224 kts | 27° |
| 2026-05-04 17:41 | 48.27483 | 11.36996 | 3996 ft | 218 kts | 50° |
| 2026-05-04 17:41 | 48.28438 | 11.38773 | 4015 ft | 220 kts | 53° |
| 2026-05-04 17:42 | 48.29371 | 11.40613 | 4016 ft | 222 kts | 53° |
| 2026-05-04 17:42 | 48.30305 | 11.42469 | 3996 ft | 222 kts | 54° |
| 2026-05-04 17:42 | 48.31200 | 11.44292 | 4035 ft | 210 kts | 59° |
| 2026-05-04 17:42 | 48.31669 | 11.46293 | 4015 ft | 200 kts | 78° |
| 2026-05-04 17:43 | 48.31942 | 11.48340 | 4000 ft | 198 kts | 81° |
| 2026-05-04 17:43 | 48.32140 | 11.50338 | 4004 ft | 191 kts | 83° |
| 2026-05-04 17:43 | 48.32305 | 11.52330 | 4000 ft | 189 kts | 83° |
| 2026-05-04 17:43 | 48.32457 | 11.54294 | 4004 ft | 190 kts | 83° |
| 2026-05-04 17:44 | 48.32610 | 11.56261 | 3960 ft | 189 kts | 83° |
| 2026-05-04 17:44 | 48.32759 | 11.58202 | 3687 ft | 181 kts | 83° |
| 2026-05-04 17:44 | 48.32901 | 11.60034 | 3488 ft | 170 kts | 83° |
| 2026-05-04 17:44 | 48.33031 | 11.61730 | 3267 ft | 158 kts | 83° |
| 2026-05-04 17:45 | 48.33158 | 11.63370 | 3067 ft | 158 kts | 83° |
| 2026-05-04 17:45 | 48.33284 | 11.65012 | 2854 ft | 159 kts | 83° |
| 2026-05-04 17:45 | 48.33413 | 11.66667 | 2654 ft | 159 kts | 83° |
| 2026-05-04 17:45 | 48.33541 | 11.68333 | 2425 ft | 162 kts | 83° |
| 2026-05-04 17:46 | 48.33671 | 11.70014 | 2207 ft | 162 kts | 82° |
| 2026-05-04 17:46 | 48.33803 | 11.71727 | 1984 ft | 163 kts | 82° |
| 2026-05-04 17:46 | 48.33933 | 11.73412 | 1748 ft | 162 kts | 82° |
| 2026-05-04 17:46 | 48.34067 | 11.75083 | 1557 ft | 161 kts | 83° |
| 2026-05-04 17:47 | 48.34194 | 11.76720 | 1481 ft | 146 kts | 83° |
| 2026-05-04 17:47 | 48.34289 | 11.77986 | 1485 ft | 90 kts | 83° |
| 2026-05-04 17:47 | 48.34353 | 11.78809 | 1477 ft | 59 kts | 82° |
| 2026-05-04 17:47 | 48.34472 | 11.79236 | 1478 ft | 26 kts | 54° |